バクー の空港の天気 - METARとTAF

ヘイダル・アリエフ国際空港(バクー) ( UBBB / BAK ) - アゼルバイジャン バクー
飛行場実況気象(Metar)
観測時間12/06 15:30 AZT (12/06 11:30 UTC)
風向・風速北北東 3m/s
視程10km以上
天気現象弱い雨
全天を覆う雲 雲底高度 1220m
気温3℃
湿度87%
気圧1031hPa
METARUBBB 061130Z 02006KT 9999 -RA OVC040 03/01 Q1031 NOSIG
過去の天気等 Google飛行場航空写真 Wunderground天気予報

過去48時間のMETAR

飛行場予報(TAF)
発表時間: 12/06 14:42 AZT (12/06 10:42 UTC)
予報対象時間: 6日16時 AZT ~ 7日16時 AZT
風向・風速東 3m/s
視程10km以上
全天を覆う雲 雲底高度 760m
6日16時 AZT ~ 7日1時 AZT に一時的に
風向・風速北東 7m/s
天気現象弱い雨
全天の4割程度の雲 雲底高度 210m
全天を覆う雲 雲底高度 610m
7日1時 AZT ~ 7日14時 AZT に一時的に
風向・風速南東 4m/s
全天の4割程度の雲 雲底高度 370m
TAF COR UBBB 061042Z 0612/0712 09006KT 9999 OVC025 TX04/0612Z TN01/0702Z
TEMPO 0612/0621 05014KT -RA SCT007 OVC020
TEMPO 0621/0710 13008KT SCT012